createdAt,value
2023-04-28T00:03:07.155Z,86.79
2023-04-28T00:06:39.601Z,86.85
2023-04-28T00:09:39.665Z,86.22
2023-04-28T00:12:16.227Z,86.27
2023-04-28T00:14:58.188Z,86.46
2023-04-28T00:17:42.003Z,86.74
2023-04-28T00:20:33.690Z,86.74
2023-04-28T00:23:15.716Z,86.69
2023-04-28T00:26:19.016Z,86.59
2023-04-28T00:29:07.663Z,86.52
2023-04-28T00:32:44.613Z,86.83
2023-04-28T00:35:24.309Z,86.61
2023-04-28T00:38:21.842Z,86.39
2023-04-28T00:41:17.699Z,86.08
2023-04-28T00:43:56.375Z,85.93
2023-04-28T00:46:33.879Z,86.03
2023-04-28T00:49:18.430Z,86.04
2023-04-28T00:52:11.232Z,85.98
2023-04-28T00:55:46.399Z,85.75
2023-04-28T00:58:34.039Z,85.54
2023-04-28T01:01:07.089Z,85.33
2023-04-28T01:03:44.646Z,85.01
2023-04-28T01:06:25.676Z,85.00
2023-04-28T01:09:01.011Z,84.81
2023-04-28T01:11:36.896Z,84.64
2023-04-28T01:14:36.606Z,84.56
2023-04-28T01:17:32.631Z,84.88
2023-04-28T01:20:25.842Z,84.76
2023-04-28T01:28:16.475Z,84.24
2023-04-28T01:31:18.356Z,85.06
2023-04-28T01:34:25.031Z,84.97
2023-04-28T01:37:00.820Z,84.22
2023-04-28T01:39:50.358Z,84.10
2023-04-28T01:42:32.386Z,83.86
2023-04-28T01:45:22.167Z,83.63
2023-04-28T01:48:04.014Z,83.99
2023-04-28T01:50:49.410Z,83.67
2023-04-28T01:53:32.424Z,83.53
2023-04-28T01:56:09.374Z,83.38
2023-04-28T01:58:49.714Z,83.00
2023-04-28T02:01:22.859Z,82.84
2023-04-28T02:04:08.048Z,82.75
2023-04-28T02:07:14.690Z,82.21
2023-04-28T02:09:49.152Z,82.15
2023-04-28T02:12:48.660Z,81.98
2023-04-28T02:15:25.742Z,82.07
2023-04-28T02:18:20.152Z,81.95
2023-04-28T02:21:18.420Z,81.69
2023-04-28T02:24:06.669Z,81.69
2023-04-28T02:27:13.692Z,81.91
2023-04-28T02:29:54.757Z,82.07
2023-04-28T02:32:29.647Z,81.94
2023-04-28T02:35:05.465Z,81.54
2023-04-28T02:38:32.169Z,81.23
2023-04-28T02:41:08.827Z,81.12
2023-04-28T02:43:49.979Z,80.58
2023-04-28T02:47:15.220Z,80.56
2023-04-28T02:50:01.784Z,80.76
2023-04-28T02:53:12.781Z,80.80
2023-04-28T02:56:19.263Z,80.69
2023-04-28T02:58:57.823Z,80.38
2023-04-28T03:01:41.724Z,80.44
2023-04-28T03:04:21.999Z,80.39
2023-04-28T03:07:21.326Z,80.39
2023-04-28T03:09:53.834Z,80.20
2023-04-28T03:12:46.383Z,80.37
2023-04-28T03:15:40.784Z,80.32
2023-04-28T03:18:22.771Z,80.19
2023-04-28T03:21:28.084Z,79.86
2023-04-28T03:24:34.009Z,80.04
2023-04-28T03:27:15.807Z,80.22
2023-04-28T03:34:52.150Z,78.82
2023-04-28T03:42:34.798Z,78.53
2023-04-28T03:45:19.631Z,78.48
2023-04-28T03:48:01.664Z,78.29
2023-04-28T03:51:17.402Z,78.53
2023-04-28T03:53:53.746Z,78.69
2023-04-28T03:56:35.635Z,78.82
2023-04-28T03:59:30.968Z,78.64
2023-04-28T04:02:22.720Z,78.27
2023-04-28T04:05:08.396Z,78.02
2023-04-28T04:08:12.623Z,77.81
2023-04-28T04:47:19.831Z,73.81
2023-04-28T04:54:41.022Z,73.08
2023-04-28T04:58:21.969Z,73.10
2023-04-28T05:11:37.128Z,72.32
2023-04-28T05:19:23.425Z,71.87
2023-04-28T05:25:58.883Z,72.19
2023-04-28T05:29:51.083Z,71.87
2023-04-28T05:32:46.538Z,71.72
2023-04-28T05:35:31.877Z,71.92
2023-04-28T05:38:49.685Z,71.75
2023-04-28T05:41:31.610Z,71.56
2023-04-28T05:44:16.736Z,71.17
2023-04-28T05:47:29.076Z,70.66
2023-04-28T05:54:38.049Z,69.57
2023-04-28T05:58:03.102Z,69.30
2023-04-28T06:01:07.150Z,69.66
2023-04-28T06:04:32.889Z,69.05
2023-04-28T06:07:17.537Z,69.10
2023-04-28T06:10:14.950Z,69.08
2023-04-28T06:17:15.326Z,68.83
2023-04-28T06:20:55.320Z,68.93
2023-04-28T06:23:43.797Z,68.21
2023-04-28T06:26:28.104Z,68.20
2023-04-28T06:29:26.278Z,68.07
2023-04-28T06:32:15.669Z,67.87
2023-04-28T06:35:49.342Z,67.76
2023-04-28T06:38:49.802Z,67.19
2023-04-28T06:41:37.811Z,67.19
2023-04-28T06:48:52.941Z,67.34
2023-04-28T06:51:38.463Z,66.79
2023-04-28T06:54:11.591Z,66.36
2023-04-28T06:56:59.251Z,66.49
2023-04-28T07:00:01.383Z,66.36
2023-04-28T07:03:20.108Z,66.28
2023-04-28T07:06:20.835Z,65.80
2023-04-28T07:09:33.536Z,66.07
2023-04-28T07:12:43.933Z,65.27
2023-04-28T07:15:37.485Z,65.11
2023-04-28T07:18:34.374Z,65.05
2023-04-28T07:21:52.728Z,64.26
2023-04-28T07:32:18.799Z,63.55
2023-04-28T07:39:31.339Z,61.90
2023-04-28T07:50:45.761Z,61.69
2023-04-28T07:59:21.834Z,60.77
2023-04-28T08:01:50.408Z,60.97
2023-04-28T08:04:21.771Z,60.95
2023-04-28T08:06:58.708Z,60.64
2023-04-28T08:09:30.719Z,60.51
2023-04-28T08:12:00.470Z,60.75
2023-04-28T08:14:28.113Z,60.65
2023-04-28T08:16:55.625Z,59.82
2023-04-28T08:19:24.107Z,59.46
2023-04-28T08:22:13.275Z,59.34
2023-04-28T08:25:07.889Z,59.17
2023-04-28T08:28:10.348Z,58.42
2023-04-28T08:35:45.330Z,58.64
2023-04-28T08:38:47.553Z,58.93
2023-04-28T08:41:44.987Z,58.47
2023-04-28T08:44:39.365Z,57.64
2023-04-28T08:47:22.629Z,57.66
2023-04-28T08:49:53.021Z,57.40
2023-04-28T08:52:33.121Z,57.37
2023-04-28T08:56:13.572Z,57.57
2023-04-28T08:59:37.505Z,56.78
2023-04-28T09:05:54.181Z,57.46
2023-04-28T09:08:28.933Z,56.87
2023-04-28T09:11:45.790Z,56.29
2023-04-28T09:14:31.448Z,56.94
2023-04-28T09:17:34.184Z,56.79
2023-04-28T09:20:35.858Z,56.38
2023-04-28T09:31:03.820Z,55.10
2023-04-28T09:34:29.455Z,55.00
2023-04-28T09:37:20.837Z,55.77
2023-04-28T09:40:26.913Z,56.02
2023-04-28T09:47:38.807Z,55.15
2023-04-28T10:03:02.255Z,54.45
2023-04-28T10:06:04.206Z,54.25
2023-04-28T10:08:52.853Z,53.78
2023-04-28T10:11:51.272Z,54.02
2023-04-28T10:14:29.827Z,53.86
2023-04-28T10:17:58.386Z,53.51
2023-04-28T10:20:38.335Z,52.19
2023-04-28T10:37:18.348Z,51.42
2023-04-28T10:44:42.241Z,52.67
2023-04-28T10:48:06.502Z,53.35
2023-04-28T10:56:08.951Z,52.07
2023-04-28T10:59:25.133Z,51.90
2023-04-28T11:02:25.617Z,51.76
2023-04-28T11:05:39.743Z,51.28
2023-04-28T11:08:26.810Z,51.72
2023-04-28T11:11:25.328Z,50.73
2023-04-28T11:13:56.708Z,50.46
2023-04-28T11:16:25.128Z,50.24
2023-04-28T11:18:55.754Z,50.34
2023-04-28T11:21:25.597Z,50.98
2023-04-28T11:23:53.423Z,50.73
2023-04-28T11:26:23.208Z,50.53
2023-04-28T11:29:00.509Z,49.80
2023-04-28T11:31:29.161Z,49.71
2023-04-28T11:34:08.000Z,49.83
2023-04-28T11:36:38.834Z,50.21
2023-04-28T11:39:10.476Z,50.70
2023-04-28T11:41:39.041Z,49.93
2023-04-28T11:44:19.419Z,49.77
2023-04-28T11:46:59.949Z,49.24
2023-04-28T11:49:47.734Z,49.21
2023-04-28T11:52:32.600Z,48.79
2023-04-28T11:55:07.848Z,49.08
2023-04-28T11:58:31.901Z,48.63
2023-04-28T12:05:12.037Z,48.00
2023-04-28T12:08:19.726Z,47.97
2023-04-28T12:11:36.099Z,48.15
2023-04-28T12:14:51.964Z,48.00
2023-04-28T12:17:39.233Z,48.57
2023-04-28T12:20:44.234Z,48.40
2023-04-28T12:23:57.062Z,47.49
2023-04-28T12:26:54.613Z,46.85
2023-04-28T12:30:00.467Z,47.47
2023-04-28T12:33:16.661Z,47.67
2023-04-28T12:36:32.174Z,47.48
2023-04-28T12:39:26.933Z,46.77
2023-04-28T12:42:25.560Z,45.29
2023-04-28T12:45:55.042Z,45.72
2023-04-28T12:48:35.880Z,46.25
2023-04-28T12:52:10.383Z,45.99
2023-04-28T12:59:52.836Z,45.67
2023-04-28T13:02:41.695Z,46.10
2023-04-28T13:05:24.697Z,45.62
2023-04-28T13:08:06.901Z,45.83
2023-04-28T13:12:03.281Z,46.34
2023-04-28T13:14:41.055Z,45.52
2023-04-28T13:18:22.855Z,45.40
2023-04-28T13:21:09.969Z,44.62
2023-04-28T13:23:50.902Z,43.26
2023-04-28T13:27:37.415Z,43.07
2023-04-28T13:30:45.394Z,43.25
2023-04-28T13:34:17.285Z,43.38
2023-04-28T13:37:17.860Z,44.25
2023-04-28T13:40:21.412Z,44.24
2023-04-28T13:43:42.872Z,43.14
2023-04-28T13:46:39.139Z,42.82
2023-04-28T13:49:53.227Z,43.22
2023-04-28T13:52:45.336Z,42.72
2023-04-28T13:55:56.148Z,42.25
2023-04-28T13:59:46.403Z,41.89
2023-04-28T14:04:00.476Z,42.60
2023-04-28T14:06:47.686Z,42.09
2023-04-28T14:10:10.948Z,42.43
2023-04-28T14:17:10.452Z,41.85
2023-04-28T14:21:59.409Z,41.40
2023-04-28T14:25:29.336Z,41.07
2023-04-28T14:28:25.440Z,41.08
2023-04-28T14:32:14.292Z,41.26
2023-04-28T14:35:16.932Z,39.97
2023-04-28T14:47:59.557Z,39.76
2023-04-28T14:51:41.564Z,39.89
2023-04-28T14:59:27.099Z,39.17
2023-04-28T15:03:12.964Z,39.11
2023-04-28T15:07:03.779Z,39.93
2023-04-28T15:14:57.399Z,39.95
2023-04-28T15:51:20.763Z,39.98
2023-04-28T17:20:12.909Z,41.29
2023-04-28T17:36:45.881Z,42.40
2023-04-28T17:43:56.200Z,42.40
2023-04-28T17:48:01.880Z,42.59
2023-04-28T17:51:43.453Z,42.89
2023-04-28T17:54:56.796Z,43.18
2023-04-28T18:06:58.336Z,43.65
2023-04-28T18:14:03.390Z,44.41
2023-04-28T18:22:21.179Z,44.87
2023-04-28T18:25:20.221Z,45.27
2023-04-28T18:28:20.514Z,45.38
2023-04-28T18:41:06.136Z,45.30
2023-04-28T18:44:20.755Z,45.16
2023-04-28T18:47:03.279Z,45.04
2023-04-28T18:50:27.929Z,45.26
2023-04-28T18:54:34.398Z,45.10
2023-04-28T18:58:31.602Z,45.65
2023-04-28T19:01:24.803Z,46.00
2023-04-28T19:04:21.843Z,46.20
2023-04-28T19:07:21.120Z,46.58
2023-04-28T19:09:59.091Z,47.01
2023-04-28T19:13:52.527Z,47.14
2023-04-28T19:16:52.824Z,47.16
2023-04-28T19:20:07.934Z,47.20
2023-04-28T19:24:14.233Z,47.24
2023-04-28T19:36:00.030Z,47.44
2023-04-28T19:39:48.310Z,47.46
2023-04-28T19:43:55.755Z,47.45
2023-04-28T19:58:31.170Z,47.36
2023-04-28T20:01:26.643Z,47.39
2023-04-28T20:04:26.737Z,47.49
2023-04-28T20:07:28.004Z,47.51
2023-04-28T20:10:40.748Z,47.85
2023-04-28T20:13:26.652Z,47.37
2023-04-28T20:16:01.715Z,47.58
2023-04-28T20:19:22.589Z,48.07
2023-04-28T20:22:08.827Z,48.17
2023-04-28T20:25:01.096Z,48.09
2023-04-28T20:37:17.474Z,49.28
2023-04-28T20:40:57.404Z,49.45
2023-04-28T20:43:55.454Z,49.67
2023-04-28T20:48:04.353Z,49.70
2023-04-28T20:51:25.434Z,49.80
2023-04-28T20:55:09.373Z,50.02
2023-04-28T20:58:10.248Z,50.09
2023-04-28T21:01:37.786Z,50.33
2023-04-28T21:04:45.175Z,50.48
2023-04-28T21:07:43.274Z,50.57
2023-04-28T21:10:21.064Z,50.64
2023-04-28T21:17:19.885Z,50.65
2023-04-28T21:20:17.295Z,50.99
2023-04-28T21:23:14.914Z,50.65
2023-04-28T21:26:51.216Z,50.69
2023-04-28T21:29:40.905Z,50.51
2023-04-28T21:32:53.904Z,50.78
2023-04-28T21:36:38.302Z,50.94
2023-04-28T21:39:23.898Z,51.10
2023-04-28T21:42:35.736Z,50.97
2023-04-28T21:45:55.587Z,51.19
2023-04-28T21:48:57.757Z,51.33
2023-04-28T21:51:50.620Z,51.52
2023-04-28T21:58:39.605Z,51.74
2023-04-28T22:01:18.656Z,51.93
2023-04-28T22:03:51.923Z,51.94
2023-04-28T22:07:02.923Z,51.75
2023-04-28T22:10:38.960Z,51.82
2023-04-28T22:13:17.931Z,51.98
2023-04-28T22:16:09.692Z,52.11
2023-04-28T22:18:51.136Z,52.31
2023-04-28T22:22:22.705Z,52.03
2023-04-28T22:24:55.631Z,52.58
2023-04-28T22:27:36.098Z,52.75
2023-04-28T22:30:33.698Z,52.90
2023-04-28T22:33:27.811Z,52.67
2023-04-28T22:36:48.207Z,52.95
2023-04-28T22:40:09.770Z,53.05
2023-04-28T22:42:40.899Z,53.08
2023-04-28T22:45:42.219Z,53.23
2023-04-28T22:48:42.847Z,53.26
2023-04-28T22:51:17.213Z,53.51
2023-04-28T22:57:40.086Z,53.75
2023-04-28T23:00:16.773Z,53.68
2023-04-28T23:03:20.767Z,53.50
2023-04-28T23:06:23.059Z,54.13
2023-04-28T23:09:00.405Z,54.23
2023-04-28T23:12:32.296Z,53.97
2023-04-28T23:15:24.122Z,54.36
2023-04-28T23:18:21.399Z,54.26
2023-04-28T23:21:27.051Z,54.25
2023-04-28T23:28:20.051Z,54.39
2023-04-28T23:31:27.510Z,54.75
2023-04-28T23:34:23.678Z,54.40
2023-04-28T23:37:01.170Z,54.53
2023-04-28T23:39:50.031Z,54.77
2023-04-28T23:42:27.619Z,54.82
2023-04-28T23:45:24.524Z,55.13
2023-04-28T23:48:20.337Z,54.92
2023-04-28T23:51:02.601Z,54.99
2023-04-28T23:54:02.092Z,55.03
2023-04-28T23:57:09.062Z,55.20
2023-04-28T23:59:45.034Z,55.13
